Time;durP1;ratioP1;P1;durP2;ratioP2;P2;SDS_P1;SDS_P2;PMS_P1;PMS_P2;Temp;Humidity;BMP_temperature;BMP_pressure;BME280_temperature;BME280_humidity;BME280_pressure;Samples;Min_cycle;Max_cycle;Signal;HPM_P1;HPM_P2
2022/07/27 00:02:05;;;;;;;13.38;9.05;;;;;;;26.56;48.77;94241.16;5049822;28;20209;-83
2022/07/27 00:04:32;;;;;;;11.05;7.88;;;;;;;26.51;48.65;94247.16;5049849;28;20207;-86
2022/07/27 00:06:58;;;;;;;9.32;8.43;;;;;;;26.41;49.05;94247.00;5049404;28;20194;-83
2022/07/27 00:09:26;;;;;;;10.07;9.18;;;;;;;26.45;49.28;94248.13;5049988;28;20195;-84
2022/07/27 00:11:53;;;;;;;8.80;7.90;;;;;;;26.36;49.19;94233.84;5049640;28;20202;-84
2022/07/27 00:14:21;;;;;;;8.75;7.95;;;;;;;26.41;49.44;94246.19;5050121;28;20689;-83
2022/07/27 00:16:48;;;;;;;11.30;7.75;;;;;;;25.93;49.67;94185.69;5050684;28;20199;-85
2022/07/27 00:19:15;;;;;;;9.40;8.40;;;;;;;26.00;49.31;94191.53;5052798;28;20218;-84
2022/07/27 00:21:41;;;;;;;9.05;8.10;;;;;;;26.31;49.82;94252.16;5054012;28;20654;-84
2022/07/27 00:24:09;;;;;;;8.73;8.02;;;;;;;26.28;50.25;94250.00;5055365;28;20237;-84
2022/07/27 00:26:35;;;;;;;10.25;9.25;;;;;;;24.53;49.97;93984.50;5062908;28;20733;-84
2022/07/27 00:29:02;;;;;;;8.77;7.97;;;;;;;26.23;50.29;94253.38;5074061;28;20356;-83
2022/07/27 00:31:31;;;;;;;9.98;9.07;;;;;;;26.23;50.39;94260.44;5074311;28;20284;-85
2022/07/27 00:33:58;;;;;;;9.60;8.38;;;;;;;26.20;50.21;94266.94;5073902;28;20198;-84
2022/07/27 00:36:25;;;;;;;12.15;9.07;;;;;;;26.18;50.40;94282.16;5074017;28;20193;-84
2022/07/27 00:38:52;;;;;;;9.40;8.55;;;;;;;26.16;50.57;94286.03;5073612;28;20194;-83
2022/07/27 00:41:19;;;;;;;8.95;8.15;;;;;;;26.13;50.80;94282.09;5063756;28;20183;-85
2022/07/27 00:43:53;;;;;;;10.13;8.75;;;;;;;24.44;50.54;94027.78;5053547;28;20191;-84
2022/07/27 00:46:21;;;;;;;10.48;8.57;;;;;;;25.71;51.20;94224.16;5053513;28;20209;-85
2022/07/27 00:48:49;;;;;;;10.20;8.05;;;;;;;26.07;51.28;94284.88;5054956;28;20198;-84
2022/07/27 00:51:18;;;;;;;9.68;8.68;;;;;;;25.78;50.93;94237.91;5074341;28;20194;-84
2022/07/27 00:53:47;;;;;;;9.43;8.23;;;;;;;26.02;51.21;94296.88;5075056;28;20195;-85
2022/07/27 00:56:14;;;;;;;9.35;8.45;;;;;;;26.01;51.07;94290.06;5079408;28;20194;-83
2022/07/27 00:58:42;;;;;;;10.07;8.80;;;;;;;24.91;51.32;94120.72;5075625;28;20334;-84
2022/07/27 01:01:09;;;;;;;9.43;8.40;;;;;;;25.77;51.30;94259.88;5075382;28;20190;-85
2022/07/27 01:03:36;;;;;;;12.95;8.68;;;;;;;25.28;51.81;94187.22;5077094;28;20178;-84
2022/07/27 01:06:06;;;;;;;12.35;9.23;;;;;;;25.70;51.83;94254.00;5073022;28;20298;-83
2022/07/27 01:08:34;;;;;;;9.82;8.82;;;;;;;25.51;52.03;94224.69;5075610;28;20186;-83
2022/07/27 01:11:02;;;;;;;10.20;9.02;;;;;;;25.77;51.83;94263.28;5061457;28;20199;-85
2022/07/27 01:13:30;;;;;;;9.23;8.38;;;;;;;25.83;52.42;94276.47;5055220;28;20203;-84
2022/07/27 01:15:58;;;;;;;9.65;8.70;;;;;;;25.80;52.14;94276.94;5053050;28;20658;-84
2022/07/27 01:18:30;;;;;;;9.88;8.88;;;;;;;25.79;52.24;94278.78;5054382;28;20226;-84
2022/07/27 01:20:59;;;;;;;10.65;9.15;;;;;;;25.46;52.29;94222.78;5053537;28;20195;-83
2022/07/27 01:23:28;;;;;;;10.45;9.55;;;;;;;25.77;52.47;94283.47;5053840;28;20194;-84
2022/07/27 01:25:55;;;;;;;9.57;8.65;;;;;;;25.51;52.36;94246.41;5052392;28;20290;-84
2022/07/27 01:28:22;;;;;;;10.45;9.10;;;;;;;25.73;52.48;94293.63;5054022;28;20298;-84
2022/07/27 01:30:49;;;;;;;9.20;8.30;;;;;;;25.59;52.76;94273.25;5052817;28;20179;-83
2022/07/27 01:33:16;;;;;;;9.35;8.43;;;;;;;25.72;52.50;94299.88;5053051;28;20187;-84
2022/07/27 01:35:43;;;;;;;9.57;8.68;;;;;;;24.82;52.50;94158.78;5052507;28;20197;-84
2022/07/27 01:38:11;;;;;;;10.23;9.27;;;;;;;25.53;52.96;94272.38;5052627;28;20187;-85
2022/07/27 01:40:40;;;;;;;10.52;9.40;;;;;;;25.69;52.79;94299.56;5051953;28;20191;-84
2022/07/27 01:43:07;;;;;;;10.60;9.27;;;;;;;25.69;52.76;94296.94;5053540;28;20185;-85
2022/07/27 01:45:34;;;;;;;11.13;10.13;;;;;;;25.68;53.11;94295.34;5053833;28;20666;-83
2022/07/27 01:48:01;;;;;;;13.52;10.52;;;;;;;25.48;52.97;94264.47;5053347;28;20201;-84
2022/07/27 01:50:29;;;;;;;10.82;9.63;;;;;;;25.68;52.92;94300.59;5053377;28;20197;-84
2022/07/27 01:52:56;;;;;;;12.75;10.55;;;;;;;25.69;52.97;94300.38;5053303;28;20198;-85
2022/07/27 01:55:22;;;;;;;11.63;10.43;;;;;;;25.69;53.06;94295.13;5053852;28;20187;-84
2022/07/27 01:57:51;;;;;;;12.27;11.07;;;;;;;25.49;53.30;94264.22;5053450;28;20674;-84
2022/07/27 02:00:18;;;;;;;12.65;10.10;;;;;;;25.71;52.82;94300.13;5057831;28;20191;-86
2022/07/27 02:02:45;;;;;;;9.20;8.40;;;;;;;25.22;52.12;94221.41;5059425;28;20195;-84
2022/07/27 02:05:12;;;;;;;9.25;8.27;;;;;;;25.40;51.14;94247.31;5061761;28;20210;-83
2022/07/27 02:07:39;;;;;;;8.27;7.47;;;;;;;25.49;50.57;94261.59;5068908;28;20214;-84
2022/07/27 02:10:07;;;;;;;10.68;7.75;;;;;;;25.63;49.46;94282.97;5051123;28;20964;-82
2022/07/27 02:12:36;;;;;;;7.35;6.72;;;;;;;25.77;48.85;94299.97;5065535;28;20272;-83
2022/07/27 02:15:07;;;;;;;7.22;6.63;;;;;;;25.56;48.48;94269.28;5053623;28;20203;-83
2022/07/27 02:17:35;;;;;;;9.60;6.78;;;;;;;25.80;48.01;94297.91;5055155;28;20595;-84
2022/07/27 02:20:02;;;;;;;8.02;7.05;;;;;;;25.37;47.61;94239.16;5075378;28;20197;-84
2022/07/27 02:22:30;;;;;;;7.18;6.40;;;;;;;25.82;47.17;94307.13;5075864;28;20213;-85
2022/07/27 02:24:57;;;;;;;8.20;6.25;;;;;;;25.62;47.02;94273.56;5072241;28;20678;-83
2022/07/27 02:27:24;;;;;;;6.75;6.15;;;;;;;25.37;47.11;94239.94;5074456;28;20206;-84
2022/07/27 02:29:52;;;;;;;7.53;6.82;;;;;;;25.83;46.71;94313.16;5072967;28;20244;-84
2022/07/27 02:32:21;;;;;;;7.90;6.45;;;;;;;25.59;46.57;94268.00;5072546;28;20198;-83
2022/07/27 02:34:48;;;;;;;7.03;6.43;;;;;;;25.81;46.66;94302.13;5070562;28;20183;-84
2022/07/27 02:37:15;;;;;;;9.10;6.63;;;;;;;25.79;46.66;94304.97;5072399;28;20191;-84
2022/07/27 02:39:42;;;;;;;7.35;6.65;;;;;;;25.79;46.35;94304.19;5071384;28;20187;-84
2022/07/27 02:42:09;;;;;;;6.88;6.20;;;;;;;25.62;46.89;94280.63;5071201;28;20194;-84
2022/07/27 02:44:36;;;;;;;7.07;6.10;;;;;;;24.18;46.79;94064.94;5072839;28;20207;-84
2022/07/27 02:47:03;;;;;;;8.70;6.72;;;;;;;25.75;46.89;94315.13;5053818;28;20666;-84
2022/07/27 02:49:31;;;;;;;7.93;6.70;;;;;;;25.33;46.77;94249.31;5053124;28;20179;-86
2022/07/27 02:51:58;;;;;;;8.13;7.32;;;;;;;25.41;47.08;94261.22;5055508;28;20194;-82
2022/07/27 02:54:25;;;;;;;8.40;7.60;;;;;;;25.51;47.16;94285.69;5070237;28;20190;-84
2022/07/27 02:56:53;;;;;;;7.53;6.78;;;;;;;25.73;47.22;94313.75;5073825;28;20599;-85
2022/07/27 02:59:21;;;;;;;8.75;7.95;;;;;;;25.72;47.41;94318.22;5074124;28;20191;-83
2022/07/27 03:01:49;;;;;;;12.50;7.85;;;;;;;25.72;47.51;94323.44;5073909;28;20576;-84
2022/07/27 03:04:17;;;;;;;8.45;7.47;;;;;;;25.41;47.92;94288.19;5070383;28;20891;-85
2022/07/27 03:06:45;;;;;;;8.32;7.43;;;;;;;25.69;47.83;94325.75;5073929;28;20221;-83
2022/07/27 03:09:12;;;;;;;7.88;7.18;;;;;;;25.68;48.13;94326.78;5055465;28;20577;-82
2022/07/27 03:11:39;;;;;;;8.13;7.32;;;;;;;25.46;48.03;94300.53;5061354;28;20209;-84
2022/07/27 03:14:06;;;;;;;9.88;7.30;;;;;;;25.68;48.23;94337.25;5064401;28;20191;-85
2022/07/27 03:16:33;;;;;;;13.43;7.68;;;;;;;25.64;48.07;94326.47;5065011;28;20219;-84
2022/07/27 03:19:00;;;;;;;9.05;7.82;;;;;;;24.46;48.37;94150.38;5060761;28;20230;-82
2022/07/27 03:21:27;;;;;;;11.68;7.45;;;;;;;24.81;48.26;94220.75;5060694;28;20197;-85
2022/07/27 03:23:55;;;;;;;8.18;6.68;;;;;;;25.61;48.55;94344.50;5059707;28;20186;-84
2022/07/27 03:26:22;;;;;;;9.40;7.93;;;;;;;25.12;48.40;94271.75;5063579;28;20242;-84
2022/07/27 03:28:49;;;;;;;13.65;8.68;;;;;;;25.56;48.82;94336.56;5063046;28;20205;-83
2022/07/27 03:31:16;;;;;;;9.13;7.43;;;;;;;25.56;48.99;94336.56;5062310;28;20195;-83
2022/07/27 03:33:43;;;;;;;9.15;7.75;;;;;;;24.67;49.01;94204.59;5053050;28;20195;-83
2022/07/27 03:36:10;;;;;;;9.40;8.50;;;;;;;25.52;48.80;94333.66;5068563;28;20270;-84
2022/07/27 03:38:37;;;;;;;10.80;7.90;;;;;;;25.50;49.39;94335.69;5070503;28;20175;-88
2022/07/27 03:41:05;;;;;;;10.70;7.53;;;;;;;25.49;49.25;94339.34;5069373;28;20183;-85
2022/07/27 03:43:32;;;;;;;11.40;7.78;;;;;;;25.46;49.56;94338.00;5069711;28;20199;-84
2022/07/27 03:45:59;;;;;;;14.65;7.72;;;;;;;25.30;49.90;94312.59;5065820;28;20229;-83
2022/07/27 03:48:26;;;;;;;10.73;8.48;;;;;;;25.43;49.89;94342.91;5061061;28;20198;-84
2022/07/27 03:50:54;;;;;;;11.30;7.80;;;;;;;25.40;50.12;94349.44;5063716;28;20212;-84
2022/07/27 03:53:21;;;;;;;9.98;8.43;;;;;;;25.40;50.12;94346.03;5062874;28;20195;-82
2022/07/27 03:55:48;;;;;;;9.70;8.25;;;;;;;25.20;50.72;94322.91;5062355;28;20252;-82
2022/07/27 03:58:17;;;;;;;12.05;8.90;;;;;;;25.38;50.76;94348.06;5059021;28;20187;-85
2022/07/27 04:00:44;;;;;;;17.00;8.50;;;;;;;25.41;50.47;94350.22;5057435;28;20198;-85
2022/07/27 04:03:11;;;;;;;10.40;7.93;;;;;;;25.41;50.57;94351.00;5059816;28;20195;-85
2022/07/27 04:05:38;;;;;;;12.32;7.85;;;;;;;23.98;50.80;94133.34;5063831;28;20226;-84
2022/07/27 04:08:06;;;;;;;11.60;7.68;;;;;;;24.68;50.83;94234.13;5070847;28;20195;-85
2022/07/27 04:10:33;;;;;;;11.30;6.93;;;;;;;24.48;50.33;94204.03;5068499;28;20193;-84
2022/07/27 04:12:59;;;;;;;10.25;7.38;;;;;;;23.88;50.51;94097.41;5066434;28;20183;-84
2022/07/27 04:15:28;;;;;;;9.75;6.93;;;;;;;25.30;50.40;94317.06;5062968;28;20190;-83
2022/07/27 04:17:55;;;;;;;7.05;6.35;;;;;;;25.55;50.52;94350.69;5066613;28;20210;-84
2022/07/27 04:20:22;;;;;;;13.07;6.25;;;;;;;25.15;50.34;94283.59;5076853;28;20182;-84
2022/07/27 04:22:48;;;;;;;11.27;6.50;;;;;;;25.60;50.38;94353.38;5086033;28;20256;-82
2022/07/27 04:25:16;;;;;;;10.75;7.28;;;;;;;25.26;50.21;94296.59;5081162;28;20211;-83
2022/07/27 04:27:42;;;;;;;9.43;6.20;;;;;;;24.63;50.17;94195.63;5084603;28;20193;-84
2022/07/27 04:30:11;;;;;;;10.23;6.72;;;;;;;25.66;50.04;94349.81;5082377;28;20190;-83
2022/07/27 04:32:39;;;;;;;11.80;6.13;;;;;;;25.37;50.62;94297.53;5081437;28;20688;-86
2022/07/27 04:35:07;;;;;;;9.82;5.93;;;;;;;25.84;50.56;94365.31;5079033;28;20186;-83
2022/07/27 04:37:34;;;;;;;10.65;6.60;;;;;;;25.78;50.80;94340.09;5059355;28;20186;-85
2022/07/27 04:40:01;;;;;;;8.25;5.38;;;;;;;25.81;51.08;94344.81;5056291;28;20179;-83
2022/07/27 04:42:28;;;;;;;11.73;6.18;;;;;;;26.03;51.36;94369.22;5070042;28;20200;-83
2022/07/27 04:44:55;;;;;;;7.30;5.90;;;;;;;25.93;51.09;94347.34;5073992;28;20201;-84
2022/07/27 04:47:23;;;;;;;13.63;5.85;;;;;;;26.10;51.20;94374.31;5083133;28;20193;-83
2022/07/27 04:49:52;;;;;;;8.80;5.43;;;;;;;25.35;51.43;94249.09;5071076;28;20205;-85
2022/07/27 04:52:19;;;;;;;12.02;6.40;;;;;;;24.74;51.49;94152.94;5063522;28;20429;-84
2022/07/27 04:54:47;;;;;;;9.82;5.68;;;;;;;25.22;51.84;94230.06;5061544;28;20217;-82
2022/07/27 04:57:14;;;;;;;9.18;6.22;;;;;;;25.80;51.67;94301.31;5074766;28;20580;-85
2022/07/27 04:59:41;;;;;;;9.02;6.47;;;;;;;26.38;51.48;94388.28;5095255;28;20221;-87
2022/07/27 05:02:08;;;;;;;7.75;6.60;;;;;;;25.93;51.46;94319.31;5081912;28;20191;-85
2022/07/27 05:04:35;;;;;;;7.72;6.50;;;;;;;26.37;51.60;94384.88;5073616;28;20235;-89
2022/07/27 05:07:03;;;;;;;9.18;7.22;;;;;;;26.11;52.04;94339.19;5069261;28;20305;-85
2022/07/27 05:09:30;;;;;;;10.18;7.10;;;;;;;26.58;52.85;94401.69;5056302;28;20191;-87
2022/07/27 05:11:57;;;;;;;6.47;5.68;;;;;;;26.67;53.84;94402.06;5059734;28;20195;-82
2022/07/27 05:14:24;;;;;;;9.85;6.15;;;;;;;26.75;52.63;94399.78;5060685;28;20184;-83
2022/07/27 05:16:51;;;;;;;9.95;6.28;;;;;;;26.68;53.19;94369.53;5053927;28;20201;-82
2022/07/27 05:19:18;;;;;;;11.48;5.90;;;;;;;26.91;52.50;94400.75;5017658;28;1216342;-83
2022/07/27 05:21:45;;;;;;;8.82;6.15;;;;;;;27.00;52.51;94395.84;5056768;28;20186;-86
2022/07/27 05:24:13;;;;;;;11.15;6.45;;;;;;;25.51;53.16;94162.63;5056670;28;20176;-85
2022/07/27 05:26:40;;;;;;;8.48;6.15;;;;;;;26.31;52.77;94254.75;5060660;28;20229;-85
2022/07/27 05:29:07;;;;;;;8.82;5.95;;;;;;;27.28;52.77;94394.84;5059729;28;20280;-81
2022/07/27 05:31:34;;;;;;;9.25;6.25;;;;;;;27.41;52.12;94399.69;5067159;28;20195;-80
2022/07/27 05:34:01;;;;;;;13.60;6.22;;;;;;;26.69;52.15;94271.44;5065125;28;20211;-82
2022/07/27 05:36:27;;;;;;;10.30;6.05;;;;;;;27.19;52.14;94328.84;5064955;28;20206;-81
2022/07/27 05:38:55;;;;;;;7.97;6.25;;;;;;;27.56;51.83;94371.97;5052811;28;20685;-82
2022/07/27 05:41:24;;;;;;;9.05;6.18;;;;;;;27.93;51.87;94400.88;5052994;28;20195;-81
2022/07/27 05:43:53;;;;;;;16.60;6.28;;;;;;;28.02;51.48;94409.88;5052261;28;20195;-84
2022/07/27 05:46:20;;;;;;;7.22;6.50;;;;;;;27.77;51.09;94349.28;5060322;28;20284;-83
2022/07/27 05:48:47;;;;;;;12.80;6.22;;;;;;;28.21;51.16;94412.91;5057805;28;20201;-83
2022/07/27 05:51:14;;;;;;;10.48;6.82;;;;;;;28.31;50.80;94410.31;5056006;28;20187;-85
2022/07/27 05:53:40;;;;;;;7.68;6.13;;;;;;;28.18;50.76;94363.44;5052939;28;20187;-83
2022/07/27 05:56:07;;;;;;;9.43;5.93;;;;;;;28.55;50.42;94409.97;5051917;28;20199;-83
2022/07/27 05:58:36;;;;;;;8.40;5.82;;;;;;;28.60;50.18;94415.25;5052172;28;20191;-82
2022/07/27 06:01:03;;;;;;;11.30;6.10;;;;;;;28.43;49.95;94373.34;5050476;28;20194;-83
2022/07/27 06:03:30;;;;;;;8.00;5.80;;;;;;;28.72;49.65;94410.56;5053539;28;20582;-82
2022/07/27 06:08:38;;;;;;;9.15;6.40;;;;;;;28.86;49.88;94410.88;5047182;28;20244;-82
2022/07/27 06:11:05;;;;;;;11.27;6.28;;;;;;;28.99;50.39;94407.78;5051353;28;20187;-83
2022/07/27 06:13:34;;;;;;;7.80;6.45;;;;;;;29.13;49.97;94410.69;5051876;28;20187;-84
2022/07/27 06:16:03;;;;;;;8.38;5.90;;;;;;;29.27;49.66;94410.97;5051614;28;20286;-83
2022/07/27 06:18:30;;;;;;;11.05;5.75;;;;;;;29.33;48.93;94409.94;5054793;28;20258;-81
2022/07/27 06:20:58;;;;;;;9.05;5.97;;;;;;;29.46;49.16;94419.97;5067061;28;20187;-82
2022/07/27 06:23:24;;;;;;;8.45;6.32;;;;;;;29.52;48.86;94403.09;5065608;28;20187;-83
2022/07/27 06:25:51;;;;;;;11.18;6.68;;;;;;;29.23;48.62;94348.28;5052972;28;20215;-84
2022/07/27 06:28:19;;;;;;;10.57;5.82;;;;;;;29.73;48.04;94409.19;5051166;28;20213;-83
2022/07/27 06:30:46;;;;;;;8.85;6.18;;;;;;;29.50;47.95;94373.59;5050580;28;20206;-82
2022/07/27 06:33:15;;;;;;;12.95;6.30;;;;;;;29.90;48.00;94419.47;5051383;28;20273;-82
2022/07/27 06:35:42;;;;;;;9.68;6.65;;;;;;;29.36;47.77;94327.72;5050367;28;20281;-81
2022/07/27 06:38:09;;;;;;;10.68;6.60;;;;;;;29.18;47.88;94303.50;5050529;28;20296;-85
2022/07/27 06:40:36;;;;;;;13.13;6.85;;;;;;;29.37;47.30;94321.44;5050595;28;20211;-83
2022/07/27 06:43:03;;;;;;;9.65;6.57;;;;;;;30.23;47.49;94426.06;5050698;28;20183;-83
2022/07/27 06:45:30;;;;;;;18.02;6.90;;;;;;;30.34;47.09;94424.97;5051847;28;20187;-84
2022/07/27 06:47:56;;;;;;;12.02;6.40;;;;;;;30.42;47.02;94427.06;5051209;28;20210;-85
2022/07/27 06:50:25;;;;;;;8.07;5.85;;;;;;;30.58;46.46;94433.09;5050203;28;20190;-83
2022/07/27 06:52:52;;;;;;;10.68;6.75;;;;;;;30.34;46.24;94381.97;5050151;28;20248;-84
2022/07/27 06:55:19;;;;;;;9.50;6.43;;;;;;;30.64;45.97;94425.94;5049535;28;20191;-84
2022/07/27 06:57:46;;;;;;;7.68;5.97;;;;;;;30.72;44.86;94423.56;5049951;28;20195;-84
2022/07/27 07:00:14;;;;;;;8.40;6.70;;;;;;;30.67;45.05;94425.41;5050101;28;20579;-81
2022/07/27 07:02:51;;;;;;;14.18;6.50;;;;;;;30.70;44.78;94416.91;5050162;28;20202;-82
2022/07/27 07:05:18;;;;;;;9.85;6.38;;;;;;;30.37;45.47;94369.03;5050145;28;20585;-86
2022/07/27 07:07:47;;;;;;;8.23;5.97;;;;;;;30.75;45.37;94416.97;5051357;28;20230;-83
2022/07/27 07:10:14;;;;;;;6.85;5.90;;;;;;;29.92;44.60;94272.31;5049253;28;20597;-84
2022/07/27 07:12:41;;;;;;;10.93;6.32;;;;;;;30.87;45.15;94419.25;5049914;28;20249;-81
2022/07/27 07:15:09;;;;;;;9.20;6.07;;;;;;;30.93;44.91;94415.56;5049964;28;20590;-83
2022/07/27 07:17:38;;;;;;;13.20;6.22;;;;;;;29.98;45.03;94279.16;5050137;28;20187;-85
2022/07/27 07:20:05;;;;;;;7.65;6.15;;;;;;;31.01;44.49;94409.69;5051613;28;20202;-83
2022/07/27 07:22:33;;;;;;;8.38;5.78;;;;;;;31.09;44.16;94403.03;5050451;28;20205;-84
2022/07/27 07:25:01;;;;;;;13.07;6.63;;;;;;;31.13;44.60;94404.88;5049704;28;20727;-83
2022/07/27 07:27:28;;;;;;;12.13;6.03;;;;;;;31.20;44.52;94405.34;5050030;28;20254;-83
2022/07/27 07:29:56;;;;;;;8.45;5.82;;;;;;;31.24;44.08;94393.16;5050150;28;20193;-83
2022/07/27 07:32:23;;;;;;;12.30;6.45;;;;;;;31.29;43.94;94400.31;5051016;28;20206;-83
2022/07/27 07:34:51;;;;;;;8.77;6.00;;;;;;;31.35;43.59;94403.72;5051124;28;20653;-85
2022/07/27 07:37:18;;;;;;;9.13;6.22;;;;;;;31.13;43.09;94346.75;5050616;28;20203;-83
2022/07/27 07:39:45;;;;;;;7.32;5.63;;;;;;;31.42;43.27;94393.59;5050156;28;20191;-82
2022/07/27 07:42:14;;;;;;;9.25;5.95;;;;;;;31.40;42.42;94383.31;5049276;28;20195;-82
2022/07/27 07:44:41;;;;;;;10.82;6.82;;;;;;;31.59;42.12;94396.66;5049952;28;20589;-83
2022/07/27 07:47:09;;;;;;;11.07;6.25;;;;;;;31.52;42.34;94369.75;5050238;28;20233;-84
2022/07/27 07:49:36;;;;;;;9.02;6.43;;;;;;;31.47;42.62;94359.19;5049660;28;20199;-84
2022/07/27 07:52:03;;;;;;;9.90;6.13;;;;;;;31.88;41.91;94394.06;5050348;28;20191;-84
2022/07/27 07:54:30;;;;;;;11.55;5.78;;;;;;;32.03;41.67;94389.69;5050974;28;20194;-84
2022/07/27 07:56:57;;;;;;;7.78;5.78;;;;;;;32.08;41.58;94398.38;5052468;28;20191;-84
2022/07/27 07:59:25;;;;;;;11.18;6.45;;;;;;;31.96;41.08;94377.59;5059198;28;20198;-85
2022/07/27 08:01:52;;;;;;;10.75;6.30;;;;;;;32.22;40.40;94396.66;5054210;28;20203;-85
2022/07/27 08:04:19;;;;;;;8.55;6.22;;;;;;;32.28;40.79;94407.19;5055480;28;20198;-83
2022/07/27 08:06:46;;;;;;;7.72;6.35;;;;;;;32.16;40.56;94387.16;5066133;28;20218;-81
2022/07/27 08:09:15;;;;;;;7.80;6.03;;;;;;;32.36;40.65;94407.34;5065955;28;20207;-82
2022/07/27 08:11:42;;;;;;;12.30;5.88;;;;;;;31.57;40.99;94279.03;5065762;28;20190;-82
2022/07/27 08:14:09;;;;;;;7.82;6.00;;;;;;;32.45;40.60;94405.69;5051008;28;20195;-83
2022/07/27 08:16:37;;;;;;;7.82;7.03;;;;;;;32.45;40.32;94392.44;5049667;28;20285;-82
2022/07/27 08:19:04;;;;;;;7.78;6.43;;;;;;;32.47;40.45;94392.16;5049242;28;20231;-82
2022/07/27 08:21:31;;;;;;;8.77;5.90;;;;;;;32.58;40.39;94390.19;5050514;28;20222;-83
2022/07/27 08:23:58;;;;;;;12.75;6.18;;;;;;;32.66;40.10;94402.81;5050403;28;20199;-83
2022/07/27 08:26:25;;;;;;;10.20;5.85;;;;;;;31.79;39.75;94252.91;5049365;28;20624;-83
2022/07/27 08:28:52;;;;;;;6.55;5.85;;;;;;;32.82;39.36;94396.25;5049837;28;20202;-83
2022/07/27 08:31:19;;;;;;;11.13;6.03;;;;;;;32.82;39.05;94390.97;5049196;28;20195;-85
2022/07/27 08:33:47;;;;;;;8.68;6.07;;;;;;;32.92;39.25;94396.16;5049130;28;20558;-83
2022/07/27 08:36:14;;;;;;;10.70;5.55;;;;;;;32.28;38.22;94283.56;5049199;28;20191;-83
2022/07/27 08:38:41;;;;;;;10.27;6.30;;;;;;;32.80;37.80;94368.47;5049158;28;20203;-84
2022/07/27 08:41:10;;;;;;;13.10;6.00;;;;;;;32.76;37.56;94368.25;5052575;28;20194;-83
2022/07/27 08:43:38;;;;;;;12.98;5.63;;;;;;;32.71;38.04;94363.81;5053385;28;20202;-82
2022/07/27 08:46:05;;;;;;;6.35;5.80;;;;;;;32.95;37.90;94390.28;5052299;28;20191;-83
2022/07/27 08:48:32;;;;;;;7.00;5.95;;;;;;;33.01;37.60;94377.75;5051860;28;20694;-81
2022/07/27 08:51:01;;;;;;;9.20;6.05;;;;;;;32.77;37.75;94350.50;5052429;28;20214;-84
2022/07/27 08:53:31;;;;;;;6.95;6.25;;;;;;;32.80;37.78;94334.03;5053288;28;20205;-84
2022/07/27 08:55:58;;;;;;;6.85;6.25;;;;;;;33.08;37.81;94367.59;5054700;28;20195;-82
2022/07/27 08:58:25;;;;;;;16.88;6.65;;;;;;;33.10;37.99;94372.59;5053971;28;20191;-82
2022/07/27 09:00:52;;;;;;;6.63;5.97;;;;;;;32.43;37.76;94256.16;5052063;28;20191;-83
2022/07/27 09:03:20;;;;;;;11.27;6.03;;;;;;;32.99;37.25;94326.09;5052272;28;20187;-82
2022/07/27 09:05:49;;;;;;;11.00;6.65;;;;;;;33.28;37.22;94365.69;5058560;28;20198;-83
2022/07/27 09:08:22;;;;;;;9.80;6.35;;;;;;;33.28;37.29;94363.06;5058495;28;20230;-82
2022/07/27 09:10:50;;;;;;;7.90;5.93;;;;;;;33.34;37.67;94359.25;5056120;28;20190;-87
2022/07/27 09:13:19;;;;;;;7.20;5.97;;;;;;;32.66;36.83;94250.00;5056376;28;20187;-86
2022/07/27 09:15:46;;;;;;;15.48;5.88;;;;;;;33.28;36.83;94334.69;5059702;28;20497;-85
2022/07/27 09:18:18;;;;;;;11.38;5.90;;;;;;;33.27;36.90;94313.78;5058300;28;20223;-85
2022/07/27 09:20:45;;;;;;;11.80;6.63;;;;;;;32.89;36.54;94260.78;5059026;28;20319;-85
2022/07/27 09:23:25;;;;;;;8.88;6.53;;;;;;;32.89;36.22;94253.63;5055417;28;20202;-83
2022/07/27 09:26:09;;;;;;;10.30;6.95;;;;;;;33.37;35.86;94324.19;5057049;28;20191;-84
2022/07/27 09:28:36;;;;;;;8.27;6.65;;;;;;;33.66;36.04;94359.28;5054971;28;20566;-80
2022/07/27 09:31:06;;;;;;;8.50;6.55;;;;;;;33.20;35.77;94277.03;5055093;28;20186;-81
2022/07/27 09:33:41;;;;;;;10.52;6.47;;;;;;;33.76;35.96;94358.31;5057324;28;20214;-81
2022/07/27 09:36:07;;;;;;;8.05;6.18;;;;;;;33.80;35.60;94354.00;5067678;28;20217;-81
2022/07/27 09:38:34;;;;;;;9.32;6.53;;;;;;;33.80;35.75;94353.22;5060834;28;20207;-81
2022/07/27 09:41:06;;;;;;;6.95;6.35;;;;;;;33.48;35.15;94301.00;5054466;28;20198;-83
2022/07/27 09:43:45;;;;;;;7.13;6.43;;;;;;;33.87;35.35;94348.34;5057064;28;20175;-83
2022/07/27 09:46:12;;;;;;;9.85;6.72;;;;;;;33.92;35.29;94356.19;5054301;28;20203;-82
2022/07/27 09:48:39;;;;;;;10.70;6.28;;;;;;;33.45;34.50;94271.31;5060012;28;20203;-84
2022/07/27 09:51:07;;;;;;;10.95;6.10;;;;;;;33.02;33.67;94195.69;5057559;28;20195;-80
2022/07/27 09:53:35;;;;;;;6.55;5.80;;;;;;;33.97;33.49;94334.13;5054102;28;20559;-83
2022/07/27 09:56:07;;;;;;;7.57;5.75;;;;;;;34.11;33.20;94348.19;5051770;28;20574;-83
2022/07/27 09:58:46;;;;;;;8.25;5.70;;;;;;;34.01;33.24;94321.84;5051639;28;20203;-83
2022/07/27 10:01:16;;;;;;;7.13;5.32;;;;;;;34.12;33.18;94336.50;5051749;28;20191;-82
2022/07/27 10:03:44;;;;;;;6.82;6.05;;;;;;;34.18;32.87;94336.09;5053494;28;20195;-84
2022/07/27 10:06:11;;;;;;;13.95;7.10;;;;;;;33.87;33.17;94301.34;5050390;28;20684;-82
2022/07/27 10:08:40;;;;;;;8.10;6.40;;;;;;;34.14;33.44;94336.97;5050309;28;20223;-83
2022/07/27 10:11:08;;;;;;;8.75;6.07;;;;;;;34.19;33.60;94334.22;5050627;28;20669;-83
2022/07/27 10:13:35;;;;;;;6.78;5.80;;;;;;;34.12;32.93;94315.28;5050803;28;20202;-82
2022/07/27 10:16:04;;;;;;;8.05;5.97;;;;;;;34.23;33.34;94334.44;5050427;28;20226;-83
2022/07/27 10:18:56;;;;;;;8.88;6.50;;;;;;;34.24;33.31;94328.03;5051046;28;20254;-82
2022/07/27 10:21:24;;;;;;;7.22;5.93;;;;;;;34.26;33.29;94331.19;5048049;28;20206;-83
2022/07/27 10:23:56;;;;;;;7.68;6.50;;;;;;;33.93;33.18;94275.50;5050464;28;20195;-83
2022/07/27 10:26:31;;;;;;;7.47;6.20;;;;;;;34.06;33.12;94303.94;5051269;28;20628;-82
2022/07/27 10:29:00;;;;;;;7.50;6.35;;;;;;;34.02;33.64;94292.34;5050193;28;20233;-84
2022/07/27 10:31:29;;;;;;;7.15;6.47;;;;;;;33.50;33.60;94211.31;5050412;28;20195;-84
2022/07/27 10:33:57;;;;;;;9.35;7.22;;;;;;;34.23;33.66;94321.16;5050998;28;20206;-83
2022/07/27 10:36:46;;;;;;;8.75;6.18;;;;;;;34.24;33.50;94318.19;5049795;28;21118;-82
2022/07/27 10:39:28;;;;;;;8.82;7.22;;;;;;;34.25;33.37;94317.13;5050614;28;20199;-82
2022/07/27 10:42:19;;;;;;;8.80;6.32;;;;;;;34.26;33.91;94309.94;5049190;28;20183;-84
2022/07/27 10:44:53;;;;;;;7.97;7.03;;;;;;;33.55;33.84;94209.38;5049404;28;20401;-83
2022/07/27 10:47:29;;;;;;;8.13;6.47;;;;;;;34.25;33.20;94298.56;5047795;28;20210;-82
2022/07/27 10:50:21;;;;;;;7.32;6.32;;;;;;;34.31;32.83;94312.50;5049250;28;20225;-84
2022/07/27 10:52:49;;;;;;;10.43;6.85;;;;;;;33.98;32.92;94258.72;5048390;28;20233;-82
2022/07/27 10:55:44;;;;;;;7.88;7.18;;;;;;;34.28;32.79;94311.22;5049738;28;20597;-83
2022/07/27 10:58:51;;;;;;;7.90;7.15;;;;;;;34.23;32.75;94300.69;5047133;28;20206;-83
2022/07/27 11:01:20;;;;;;;8.07;7.28;;;;;;;34.11;33.35;94282.63;5049168;28;20244;-83
2022/07/27 11:03:51;;;;;;;8.13;6.78;;;;;;;33.47;33.30;94178.25;5049636;28;20203;-83
2022/07/27 11:06:29;;;;;;;7.93;7.13;;;;;;;34.01;33.24;94269.53;5047027;28;20245;-83
2022/07/27 11:08:57;;;;;;;8.07;7.07;;;;;;;34.23;33.07;94289.31;5049351;28;20219;-83
2022/07/27 11:11:25;;;;;;;7.25;6.65;;;;;;;34.02;33.32;94249.88;5049303;28;20203;-83
2022/07/27 11:13:56;;;;;;;9.75;7.18;;;;;;;34.04;33.49;94252.25;5048611;28;20175;-84
2022/07/27 11:16:24;;;;;;;7.78;7.07;;;;;;;34.01;33.45;94243.00;5048940;28;20197;-83
2022/07/27 11:19:11;;;;;;;9.90;7.70;;;;;;;34.30;33.76;94279.06;5048978;28;20317;-81
2022/07/27 11:21:40;;;;;;;8.40;7.50;;;;;;;34.32;33.67;94275.03;4971746;28;20186;-80
2022/07/27 11:24:11;;;;;;;12.35;6.80;;;;;;;34.33;32.89;94273.97;4969309;28;20215;-80
2022/07/27 11:26:42;;;;;;;8.25;6.80;;;;;;;34.35;33.10;94269.13;4963161;28;21332;-81
2022/07/27 11:29:12;;;;;;;9.35;7.30;;;;;;;34.36;33.62;94268.03;4968215;28;20241;-81
2022/07/27 11:31:41;;;;;;;7.93;7.10;;;;;;;34.38;33.19;94267.75;4965619;28;20194;-81
2022/07/27 11:34:08;;;;;;;9.48;7.63;;;;;;;34.42;33.31;94271.41;4966666;28;20178;-81
2022/07/27 11:36:37;;;;;;;7.72;6.70;;;;;;;34.24;33.18;94235.91;4963026;28;20197;-80
2022/07/27 11:39:06;;;;;;;8.95;7.30;;;;;;;34.43;33.08;94260.47;4964192;28;20303;-80